Aviation Digital Data Service (ADDS)

Output produced by METARs form (1337 UTC 10 July 2020)
found at http://www.aviationweather.gov/metar/data/
 
KPDK 101253Z 30003KT 10SM CLR 25/22 A2999 RMK AO2 SLP139 T02500222
KPDK 101127Z 1012/1112 20003KT P6SM SKC 
     FM101800 27006KT P6SM SCT050 
     FM110000 29007KT P6SM FEW050